Strona główna
METAR-TAF:

METAR-TAF

Lotnisko :

Air_Force_Base

Plattsburgh, Nowy Jork, Stany Zjednoczone

Szerokość geograficzna: 44-39N, Długość geograficzna: 073-28W, wysokość: 72 m

Aktualna obserwacja pogody

Raport powstał 37 minut temu, godzina 01:53 UTC
Wiatr 4 kt z kierunków zmiennych
Temperatura 2°C
Wilgotność 64%
Ciśnienie 1016 hPa
Widzialność: 16.1 km
bezchmurnie

METAR: KPBG 170153Z AUTO VRB04KT 10SM CLR 02/M04 A2999 RMK AO2 SLP157 T00221044

czas: 21:30 (02:30 UTC)

Prognoza

Raport powstał 2 godziny i 56 minut temu, godzina 23:34 UTC
Prognoza ważna od 17 godzina 00 UTC do 17 godzina 24 UTC
Wiatr 3 kt z kierunków zmiennych
Widzialność: 10 km
Zachmurzenie całkowite na wysokości 4000 ft
Od 17 godzina 0800 UTC
Wiatr 6 kt od zachodnio-północny zachód
Widzialność: 10 km
Przerywane chmury na wysokości 3500 ft
Od 17 godzina 1600 UTC
Wiatr 6 kt od północno-północny zachód
Widzialność: 10 km
Rozproszone chmury na wysokości 3500 ft

TAF: KPBG 162334Z 1700/1724 VRB03KT P6SM OVC040 FM170800 29006KT P6SM BKN035 FM171600 33006KT P6SM SCT035

Obserwacja i prognoza pogody dla ponad 4000 lotnisk (raport METAR i TAF).

Dostępne stacje oznaczono żółtymi i czerwonymi punktami na mapie.

Najedź kursorem aby zobaczyć nazwę stacji.

Kliknij aby zobaczyć obserwacje i prognozy pogody.

Aby zmienić mapę: kliknij na zielony przycisk z czarnym krzyżykiem, aby powiększyć; na zielony przycisk z myślnikiem, aby pomniejszyć; na zielone strzałki, aby przejść do map sąsiednich.


METAR-TAF: